sensor_id;sensor_type;location;lat;lon;timestamp;temperature;humidity
14985;DHT22;7588;62.368;25.902;2023-06-14T00:01:02;11.40;99.90
14985;DHT22;7588;62.368;25.902;2023-06-14T00:03:28;11.30;99.90
14985;DHT22;7588;62.368;25.902;2023-06-14T00:05:54;11.20;99.90
14985;DHT22;7588;62.368;25.902;2023-06-14T00:08:20;11.10;99.90
14985;DHT22;7588;62.368;25.902;2023-06-14T00:10:48;11.00;99.90
14985;DHT22;7588;62.368;25.902;2023-06-14T00:13:14;10.90;99.90
14985;DHT22;7588;62.368;25.902;2023-06-14T00:15:40;10.90;99.90
14985;DHT22;7588;62.368;25.902;2023-06-14T00:18:06;10.80;99.90
14985;DHT22;7588;62.368;25.902;2023-06-14T00:20:32;10.70;99.90
14985;DHT22;7588;62.368;25.902;2023-06-14T00:23:01;10.60;99.90
14985;DHT22;7588;62.368;25.902;2023-06-14T00:25:27;10.50;99.90
14985;DHT22;7588;62.368;25.902;2023-06-14T00:27:57;10.40;99.90
14985;DHT22;7588;62.368;25.902;2023-06-14T00:30:23;10.30;99.90
14985;DHT22;7588;62.368;25.902;2023-06-14T00:32:49;10.20;99.90
14985;DHT22;7588;62.368;25.902;2023-06-14T00:35:16;10.10;99.90
14985;DHT22;7588;62.368;25.902;2023-06-14T00:37:42;10.00;99.90
14985;DHT22;7588;62.368;25.902;2023-06-14T00:40:08;9.90;99.90
14985;DHT22;7588;62.368;25.902;2023-06-14T00:42:33;9.80;99.90
14985;DHT22;7588;62.368;25.902;2023-06-14T00:45:00;9.80;99.90
14985;DHT22;7588;62.368;25.902;2023-06-14T00:47:26;9.70;99.90
14985;DHT22;7588;62.368;25.902;2023-06-14T00:49:53;9.60;99.90
14985;DHT22;7588;62.368;25.902;2023-06-14T00:52:19;9.60;99.90
14985;DHT22;7588;62.368;25.902;2023-06-14T00:54:46;9.50;99.90
14985;DHT22;7588;62.368;25.902;2023-06-14T00:57:12;9.50;99.90
14985;DHT22;7588;62.368;25.902;2023-06-14T00:59:45;9.50;99.90
14985;DHT22;7588;62.368;25.902;2023-06-14T01:02:11;9.40;99.90
14985;DHT22;7588;62.368;25.902;2023-06-14T01:04:38;9.40;99.90
14985;DHT22;7588;62.368;25.902;2023-06-14T01:10:20;9.20;99.90
14985;DHT22;7588;62.368;25.902;2023-06-14T01:15:38;9.20;99.90
14985;DHT22;7588;62.368;25.902;2023-06-14T01:18:05;9.10;99.90
14985;DHT22;7588;62.368;25.902;2023-06-14T01:20:34;9.10;99.90
14985;DHT22;7588;62.368;25.902;2023-06-14T01:23:03;9.10;99.90
14985;DHT22;7588;62.368;25.902;2023-06-14T01:25:29;9.00;99.90
14985;DHT22;7588;62.368;25.902;2023-06-14T01:28:04;9.00;99.90
14985;DHT22;7588;62.368;25.902;2023-06-14T01:30:37;8.90;99.90
14985;DHT22;7588;62.368;25.902;2023-06-14T01:33:04;8.90;99.90
14985;DHT22;7588;62.368;25.902;2023-06-14T01:35:31;8.80;99.90
14985;DHT22;7588;62.368;25.902;2023-06-14T01:37:57;8.80;99.90
14985;DHT22;7588;62.368;25.902;2023-06-14T01:40:24;8.70;99.90
14985;DHT22;7588;62.368;25.902;2023-06-14T01:42:51;8.70;99.90
14985;DHT22;7588;62.368;25.902;2023-06-14T01:45:18;8.70;99.90
14985;DHT22;7588;62.368;25.902;2023-06-14T01:47:44;8.70;99.90
14985;DHT22;7588;62.368;25.902;2023-06-14T01:50:11;8.70;99.90
14985;DHT22;7588;62.368;25.902;2023-06-14T01:52:37;8.70;99.90
14985;DHT22;7588;62.368;25.902;2023-06-14T01:55:05;8.60;99.90
14985;DHT22;7588;62.368;25.902;2023-06-14T01:57:31;8.60;99.90
14985;DHT22;7588;62.368;25.902;2023-06-14T01:59:57;8.60;99.90
14985;DHT22;7588;62.368;25.902;2023-06-14T02:02:23;8.60;99.90
14985;DHT22;7588;62.368;25.902;2023-06-14T02:04:48;8.70;99.90
14985;DHT22;7588;62.368;25.902;2023-06-14T02:07:14;8.70;99.90
14985;DHT22;7588;62.368;25.902;2023-06-14T02:09:41;8.60;99.90
14985;DHT22;7588;62.368;25.902;2023-06-14T02:12:07;8.70;99.90
14985;DHT22;7588;62.368;25.902;2023-06-14T02:14:33;8.70;99.90
14985;DHT22;7588;62.368;25.902;2023-06-14T02:16:59;8.70;99.90
14985;DHT22;7588;62.368;25.902;2023-06-14T02:19:26;8.70;99.90
14985;DHT22;7588;62.368;25.902;2023-06-14T02:21:52;8.80;99.90
14985;DHT22;7588;62.368;25.902;2023-06-14T02:24:18;8.90;99.90
14985;DHT22;7588;62.368;25.902;2023-06-14T02:26:44;8.90;99.90
14985;DHT22;7588;62.368;25.902;2023-06-14T02:29:09;8.90;99.90
14985;DHT22;7588;62.368;25.902;2023-06-14T02:31:38;9.00;99.90
14985;DHT22;7588;62.368;25.902;2023-06-14T02:34:04;9.00;99.90
14985;DHT22;7588;62.368;25.902;2023-06-14T02:36:30;9.10;99.90
14985;DHT22;7588;62.368;25.902;2023-06-14T02:38:56;9.10;99.90
14985;DHT22;7588;62.368;25.902;2023-06-14T02:41:25;9.20;99.90
14985;DHT22;7588;62.368;25.902;2023-06-14T02:43:52;9.20;99.90
14985;DHT22;7588;62.368;25.902;2023-06-14T02:46:18;9.30;99.90
14985;DHT22;7588;62.368;25.902;2023-06-14T02:48:44;9.40;99.90
14985;DHT22;7588;62.368;25.902;2023-06-14T02:51:09;9.50;99.90
14985;DHT22;7588;62.368;25.902;2023-06-14T02:53:35;9.60;99.90
14985;DHT22;7588;62.368;25.902;2023-06-14T02:56:02;9.70;99.90
14985;DHT22;7588;62.368;25.902;2023-06-14T02:58:29;9.70;99.90
14985;DHT22;7588;62.368;25.902;2023-06-14T03:00:55;9.80;99.90
14985;DHT22;7588;62.368;25.902;2023-06-14T03:03:21;10.00;99.90
14985;DHT22;7588;62.368;25.902;2023-06-14T03:05:50;10.00;99.90
14985;DHT22;7588;62.368;25.902;2023-06-14T03:08:16;10.10;99.90
14985;DHT22;7588;62.368;25.902;2023-06-14T03:10:45;10.20;99.90
14985;DHT22;7588;62.368;25.902;2023-06-14T03:13:12;10.30;99.90
14985;DHT22;7588;62.368;25.902;2023-06-14T03:15:38;10.40;99.90
14985;DHT22;7588;62.368;25.902;2023-06-14T03:18:04;10.40;99.90
14985;DHT22;7588;62.368;25.902;2023-06-14T03:20:30;10.50;99.90
14985;DHT22;7588;62.368;25.902;2023-06-14T03:23:01;10.70;99.90
14985;DHT22;7588;62.368;25.902;2023-06-14T03:25:27;10.70;99.90
14985;DHT22;7588;62.368;25.902;2023-06-14T03:27:55;10.90;99.90
14985;DHT22;7588;62.368;25.902;2023-06-14T03:30:21;10.90;99.90
14985;DHT22;7588;62.368;25.902;2023-06-14T03:32:47;11.00;99.90
14985;DHT22;7588;62.368;25.902;2023-06-14T03:35:13;11.20;99.90
14985;DHT22;7588;62.368;25.902;2023-06-14T03:37:43;11.30;99.90
14985;DHT22;7588;62.368;25.902;2023-06-14T03:40:10;11.40;99.90
14985;DHT22;7588;62.368;25.902;2023-06-14T03:42:36;11.50;99.90
14985;DHT22;7588;62.368;25.902;2023-06-14T03:45:02;11.60;99.90
14985;DHT22;7588;62.368;25.902;2023-06-14T03:47:28;11.80;99.90
14985;DHT22;7588;62.368;25.902;2023-06-14T03:49:54;11.90;99.90
14985;DHT22;7588;62.368;25.902;2023-06-14T03:52:19;12.00;99.90
14985;DHT22;7588;62.368;25.902;2023-06-14T03:54:47;12.20;99.90
14985;DHT22;7588;62.368;25.902;2023-06-14T03:57:13;12.30;99.90
14985;DHT22;7588;62.368;25.902;2023-06-14T03:59:38;12.50;99.90
14985;DHT22;7588;62.368;25.902;2023-06-14T04:02:04;12.60;99.90
14985;DHT22;7588;62.368;25.902;2023-06-14T04:04:30;13.00;99.90
14985;DHT22;7588;62.368;25.902;2023-06-14T04:06:57;13.30;99.90
14985;DHT22;7588;62.368;25.902;2023-06-14T04:09:24;13.50;99.90
14985;DHT22;7588;62.368;25.902;2023-06-14T04:11:53;13.80;99.90
14985;DHT22;7588;62.368;25.902;2023-06-14T04:14:19;14.00;99.90
14985;DHT22;7588;62.368;25.902;2023-06-14T04:16:46;14.00;99.90
14985;DHT22;7588;62.368;25.902;2023-06-14T04:19:12;14.10;99.90
14985;DHT22;7588;62.368;25.902;2023-06-14T04:21:38;14.30;99.90
14985;DHT22;7588;62.368;25.902;2023-06-14T04:24:04;14.70;99.90
14985;DHT22;7588;62.368;25.902;2023-06-14T04:26:30;14.90;99.30
14985;DHT22;7588;62.368;25.902;2023-06-14T04:29:01;15.10;98.30
14985;DHT22;7588;62.368;25.902;2023-06-14T04:31:28;15.30;96.50
14985;DHT22;7588;62.368;25.902;2023-06-14T04:33:55;15.80;97.20
14985;DHT22;7588;62.368;25.902;2023-06-14T04:36:21;16.40;95.10
14985;DHT22;7588;62.368;25.902;2023-06-14T04:38:47;17.20;94.90
14985;DHT22;7588;62.368;25.902;2023-06-14T04:41:14;18.30;91.20
14985;DHT22;7588;62.368;25.902;2023-06-14T04:43:41;19.10;84.90
14985;DHT22;7588;62.368;25.902;2023-06-14T04:46:08;19.50;83.80
14985;DHT22;7588;62.368;25.902;2023-06-14T04:48:39;19.70;82.70
14985;DHT22;7588;62.368;25.902;2023-06-14T04:51:07;20.10;80.50
14985;DHT22;7588;62.368;25.902;2023-06-14T04:53:33;20.20;79.00
14985;DHT22;7588;62.368;25.902;2023-06-14T04:55:59;20.70;78.40
14985;DHT22;7588;62.368;25.902;2023-06-14T04:58:29;21.20;71.50
14985;DHT22;7588;62.368;25.902;2023-06-14T05:00:56;21.10;72.20
14985;DHT22;7588;62.368;25.902;2023-06-14T05:03:25;21.10;71.10
14985;DHT22;7588;62.368;25.902;2023-06-14T05:05:52;21.60;70.60
14985;DHT22;7588;62.368;25.902;2023-06-14T05:08:21;21.30;71.90
14985;DHT22;7588;62.368;25.902;2023-06-14T05:10:49;21.30;67.80
14985;DHT22;7588;62.368;25.902;2023-06-14T05:13:15;21.30;68.20
14985;DHT22;7588;62.368;25.902;2023-06-14T05:15:40;21.30;66.10
14985;DHT22;7588;62.368;25.902;2023-06-14T05:18:06;21.20;66.90
14985;DHT22;7588;62.368;25.902;2023-06-14T05:20:35;21.30;66.80
14985;DHT22;7588;62.368;25.902;2023-06-14T05:23:02;21.50;64.60
14985;DHT22;7588;62.368;25.902;2023-06-14T05:25:28;21.50;64.60
14985;DHT22;7588;62.368;25.902;2023-06-14T05:27:54;21.90;64.30
14985;DHT22;7588;62.368;25.902;2023-06-14T05:30:20;22.00;63.70
14985;DHT22;7588;62.368;25.902;2023-06-14T05:32:45;22.20;63.30
14985;DHT22;7588;62.368;25.902;2023-06-14T05:35:11;22.40;64.80
14985;DHT22;7588;62.368;25.902;2023-06-14T05:37:37;22.50;64.10
14985;DHT22;7588;62.368;25.902;2023-06-14T05:40:04;22.60;61.60
14985;DHT22;7588;62.368;25.902;2023-06-14T05:42:34;22.70;63.30
14985;DHT22;7588;62.368;25.902;2023-06-14T05:45:00;22.60;62.90
14985;DHT22;7588;62.368;25.902;2023-06-14T05:47:26;22.60;61.20
14985;DHT22;7588;62.368;25.902;2023-06-14T05:49:53;22.80;60.10
14985;DHT22;7588;62.368;25.902;2023-06-14T05:52:20;23.00;62.30
14985;DHT22;7588;62.368;25.902;2023-06-14T05:54:46;22.70;59.80
14985;DHT22;7588;62.368;25.902;2023-06-14T05:57:12;22.80;61.40
14985;DHT22;7588;62.368;25.902;2023-06-14T05:59:38;23.20;60.00
14985;DHT22;7588;62.368;25.902;2023-06-14T06:02:03;22.90;59.40
14985;DHT22;7588;62.368;25.902;2023-06-14T06:04:29;22.60;61.00
14985;DHT22;7588;62.368;25.902;2023-06-14T06:06:55;22.30;61.20
14985;DHT22;7588;62.368;25.902;2023-06-14T06:09:20;22.30;59.40
14985;DHT22;7588;62.368;25.902;2023-06-14T06:11:46;22.60;60.00
14985;DHT22;7588;62.368;25.902;2023-06-14T06:14:12;23.00;62.30
14985;DHT22;7588;62.368;25.902;2023-06-14T06:16:37;22.80;59.90
14985;DHT22;7588;62.368;25.902;2023-06-14T06:19:03;22.50;60.20
14985;DHT22;7588;62.368;25.902;2023-06-14T06:21:29;22.70;61.40
14985;DHT22;7588;62.368;25.902;2023-06-14T06:23:54;23.30;59.90
14985;DHT22;7588;62.368;25.902;2023-06-14T06:26:22;23.70;58.70
14985;DHT22;7588;62.368;25.902;2023-06-14T06:28:48;24.30;56.50
14985;DHT22;7588;62.368;25.902;2023-06-14T06:31:14;24.40;56.80
14985;DHT22;7588;62.368;25.902;2023-06-14T06:33:40;24.00;55.70
14985;DHT22;7588;62.368;25.902;2023-06-14T06:36:06;23.90;57.50
14985;DHT22;7588;62.368;25.902;2023-06-14T06:38:32;24.10;58.10
14985;DHT22;7588;62.368;25.902;2023-06-14T06:40:57;24.30;57.00
14985;DHT22;7588;62.368;25.902;2023-06-14T06:43:23;23.70;56.30
14985;DHT22;7588;62.368;25.902;2023-06-14T06:45:49;23.40;59.80
14985;DHT22;7588;62.368;25.902;2023-06-14T06:48:15;23.50;58.10
14985;DHT22;7588;62.368;25.902;2023-06-14T06:50:41;23.20;57.90
14985;DHT22;7588;62.368;25.902;2023-06-14T06:53:07;23.80;56.60
14985;DHT22;7588;62.368;25.902;2023-06-14T06:55:32;23.70;57.90
14985;DHT22;7588;62.368;25.902;2023-06-14T06:57:58;23.30;56.50
14985;DHT22;7588;62.368;25.902;2023-06-14T07:00:25;23.60;56.30
14985;DHT22;7588;62.368;25.902;2023-06-14T07:02:51;23.60;56.10
14985;DHT22;7588;62.368;25.902;2023-06-14T07:05:17;23.80;57.00
14985;DHT22;7588;62.368;25.902;2023-06-14T07:07:43;24.10;58.10
14985;DHT22;7588;62.368;25.902;2023-06-14T07:10:09;24.40;55.50
14985;DHT22;7588;62.368;25.902;2023-06-14T07:12:35;24.50;55.00
14985;DHT22;7588;62.368;25.902;2023-06-14T07:15:06;25.00;55.40
14985;DHT22;7588;62.368;25.902;2023-06-14T07:17:32;25.30;54.10
14985;DHT22;7588;62.368;25.902;2023-06-14T07:19:57;25.30;54.50
14985;DHT22;7588;62.368;25.902;2023-06-14T07:22:23;24.60;55.60
14985;DHT22;7588;62.368;25.902;2023-06-14T07:24:49;24.90;57.20
14985;DHT22;7588;62.368;25.902;2023-06-14T07:27:15;25.10;51.20
14985;DHT22;7588;62.368;25.902;2023-06-14T07:29:40;25.20;53.10
14985;DHT22;7588;62.368;25.902;2023-06-14T07:32:06;25.30;55.80
14985;DHT22;7588;62.368;25.902;2023-06-14T07:34:32;25.00;53.10
14985;DHT22;7588;62.368;25.902;2023-06-14T07:36:58;24.90;51.70
14985;DHT22;7588;62.368;25.902;2023-06-14T07:39:23;24.40;54.80
14985;DHT22;7588;62.368;25.902;2023-06-14T07:41:49;24.00;55.30
14985;DHT22;7588;62.368;25.902;2023-06-14T07:44:15;24.30;52.70
14985;DHT22;7588;62.368;25.902;2023-06-14T07:46:41;24.60;52.70
14985;DHT22;7588;62.368;25.902;2023-06-14T07:49:07;24.80;53.20
14985;DHT22;7588;62.368;25.902;2023-06-14T07:51:33;24.80;53.10
14985;DHT22;7588;62.368;25.902;2023-06-14T07:54:02;25.00;51.20
14985;DHT22;7588;62.368;25.902;2023-06-14T07:56:28;24.70;53.90
14985;DHT22;7588;62.368;25.902;2023-06-14T07:58:54;24.30;53.20
14985;DHT22;7588;62.368;25.902;2023-06-14T08:01:20;24.50;53.10
14985;DHT22;7588;62.368;25.902;2023-06-14T08:03:45;24.40;52.60
14985;DHT22;7588;62.368;25.902;2023-06-14T08:06:11;24.50;52.10
14985;DHT22;7588;62.368;25.902;2023-06-14T08:08:37;24.20;53.50
14985;DHT22;7588;62.368;25.902;2023-06-14T08:11:03;24.70;55.30
14985;DHT22;7588;62.368;25.902;2023-06-14T08:13:28;25.00;51.20
14985;DHT22;7588;62.368;25.902;2023-06-14T08:15:54;25.10;51.90
14985;DHT22;7588;62.368;25.902;2023-06-14T08:18:22;25.10;53.30
14985;DHT22;7588;62.368;25.902;2023-06-14T08:20:48;25.20;55.50
14985;DHT22;7588;62.368;25.902;2023-06-14T08:23:14;25.30;50.40
14985;DHT22;7588;62.368;25.902;2023-06-14T08:25:39;25.30;50.80
14985;DHT22;7588;62.368;25.902;2023-06-14T08:28:05;25.30;53.00
14985;DHT22;7588;62.368;25.902;2023-06-14T08:30:31;25.00;54.40
14985;DHT22;7588;62.368;25.902;2023-06-14T08:32:57;24.90;56.70
14985;DHT22;7588;62.368;25.902;2023-06-14T08:35:23;25.20;53.90
14985;DHT22;7588;62.368;25.902;2023-06-14T08:37:49;25.30;52.40
14985;DHT22;7588;62.368;25.902;2023-06-14T08:42:51;25.40;52.50
14985;DHT22;7588;62.368;25.902;2023-06-14T08:45:17;25.40;49.10
14985;DHT22;7588;62.368;25.902;2023-06-14T08:47:44;25.50;49.50
14985;DHT22;7588;62.368;25.902;2023-06-14T08:50:11;25.50;53.90
14985;DHT22;7588;62.368;25.902;2023-06-14T08:52:38;25.70;51.00
14985;DHT22;7588;62.368;25.902;2023-06-14T08:55:06;25.40;51.10
14985;DHT22;7588;62.368;25.902;2023-06-14T08:57:37;25.60;50.90
14985;DHT22;7588;62.368;25.902;2023-06-14T09:00:04;25.80;54.10
14985;DHT22;7588;62.368;25.902;2023-06-14T09:02:37;25.80;53.60
14985;DHT22;7588;62.368;25.902;2023-06-14T09:05:04;26.00;51.60
14985;DHT22;7588;62.368;25.902;2023-06-14T09:07:29;26.30;53.70
14985;DHT22;7588;62.368;25.902;2023-06-14T09:10:12;26.10;53.50
14985;DHT22;7588;62.368;25.902;2023-06-14T09:12:38;26.20;51.20
14985;DHT22;7588;62.368;25.902;2023-06-14T09:15:08;26.70;52.30
14985;DHT22;7588;62.368;25.902;2023-06-14T09:17:43;26.80;50.00
14985;DHT22;7588;62.368;25.902;2023-06-14T09:20:09;26.50;52.90
14985;DHT22;7588;62.368;25.902;2023-06-14T09:22:37;26.20;55.40
14985;DHT22;7588;62.368;25.902;2023-06-14T09:25:03;26.40;51.70
14985;DHT22;7588;62.368;25.902;2023-06-14T09:27:31;26.40;51.90
14985;DHT22;7588;62.368;25.902;2023-06-14T09:29:57;26.70;51.20
14985;DHT22;7588;62.368;25.902;2023-06-14T09:32:22;26.70;50.30
14985;DHT22;7588;62.368;25.902;2023-06-14T09:34:49;26.90;50.80
14985;DHT22;7588;62.368;25.902;2023-06-14T09:37:31;26.60;48.80
14985;DHT22;7588;62.368;25.902;2023-06-14T09:39:57;26.60;50.90
14985;DHT22;7588;62.368;25.902;2023-06-14T09:42:23;26.60;52.60
14985;DHT22;7588;62.368;25.902;2023-06-14T09:44:54;27.00;51.40
14985;DHT22;7588;62.368;25.902;2023-06-14T09:47:21;27.20;49.60
14985;DHT22;7588;62.368;25.902;2023-06-14T09:49:48;27.40;48.80
14985;DHT22;7588;62.368;25.902;2023-06-14T09:52:15;27.50;46.60
14985;DHT22;7588;62.368;25.902;2023-06-14T09:54:42;27.80;46.80
14985;DHT22;7588;62.368;25.902;2023-06-14T09:57:12;27.50;50.00
14985;DHT22;7588;62.368;25.902;2023-06-14T09:59:42;27.40;48.70
14985;DHT22;7588;62.368;25.902;2023-06-14T10:05:07;27.40;48.60
14985;DHT22;7588;62.368;25.902;2023-06-14T10:10:19;27.70;47.20
14985;DHT22;7588;62.368;25.902;2023-06-14T10:12:45;28.20;42.60
14985;DHT22;7588;62.368;25.902;2023-06-14T10:15:17;28.50;44.10
14985;DHT22;7588;62.368;25.902;2023-06-14T10:17:52;28.70;46.30
14985;DHT22;7588;62.368;25.902;2023-06-14T10:20:33;28.30;48.80
14985;DHT22;7588;62.368;25.902;2023-06-14T10:23:10;28.60;45.50
14985;DHT22;7588;62.368;25.902;2023-06-14T10:25:38;29.10;45.60
14985;DHT22;7588;62.368;25.902;2023-06-14T10:28:17;29.50;44.20
14985;DHT22;7588;62.368;25.902;2023-06-14T10:31:03;29.60;44.30
14985;DHT22;7588;62.368;25.902;2023-06-14T10:33:52;29.60;44.00
14985;DHT22;7588;62.368;25.902;2023-06-14T10:36:30;29.60;46.10
14985;DHT22;7588;62.368;25.902;2023-06-14T10:41:28;29.50;42.50
14985;DHT22;7588;62.368;25.902;2023-06-14T10:46:47;29.90;44.20
14985;DHT22;7588;62.368;25.902;2023-06-14T10:49:20;29.60;44.40
14985;DHT22;7588;62.368;25.902;2023-06-14T10:51:49;29.80;45.70
14985;DHT22;7588;62.368;25.902;2023-06-14T10:54:16;29.90;47.20
14985;DHT22;7588;62.368;25.902;2023-06-14T10:56:52;30.30;43.50
14985;DHT22;7588;62.368;25.902;2023-06-14T10:59:19;30.30;43.20
14985;DHT22;7588;62.368;25.902;2023-06-14T11:04:55;30.70;41.40
14985;DHT22;7588;62.368;25.902;2023-06-14T11:10:36;30.10;43.10
14985;DHT22;7588;62.368;25.902;2023-06-14T11:13:03;29.80;41.30
14985;DHT22;7588;62.368;25.902;2023-06-14T11:15:30;29.70;44.60
14985;DHT22;7588;62.368;25.902;2023-06-14T11:17:56;30.00;43.20
14985;DHT22;7588;62.368;25.902;2023-06-14T11:20:27;30.10;41.80
14985;DHT22;7588;62.368;25.902;2023-06-14T11:22:53;30.50;40.40
14985;DHT22;7588;62.368;25.902;2023-06-14T11:25:19;30.80;40.60
14985;DHT22;7588;62.368;25.902;2023-06-14T11:27:45;31.10;38.90
14985;DHT22;7588;62.368;25.902;2023-06-14T11:30:14;31.30;39.00
14985;DHT22;7588;62.368;25.902;2023-06-14T11:32:40;30.40;43.10
14985;DHT22;7588;62.368;25.902;2023-06-14T11:35:06;30.50;40.90
14985;DHT22;7588;62.368;25.902;2023-06-14T11:37:35;30.90;38.30
14985;DHT22;7588;62.368;25.902;2023-06-14T11:40:03;30.80;39.10
14985;DHT22;7588;62.368;25.902;2023-06-14T11:42:37;30.40;37.20
14985;DHT22;7588;62.368;25.902;2023-06-14T11:45:04;30.60;37.30
14985;DHT22;7588;62.368;25.902;2023-06-14T11:47:33;30.50;38.80
14985;DHT22;7588;62.368;25.902;2023-06-14T11:50:03;30.20;39.10
14985;DHT22;7588;62.368;25.902;2023-06-14T11:52:29;29.70;45.30
14985;DHT22;7588;62.368;25.902;2023-06-14T11:54:55;30.20;41.10
14985;DHT22;7588;62.368;25.902;2023-06-14T11:57:25;30.40;40.80
14985;DHT22;7588;62.368;25.902;2023-06-14T11:59:51;30.40;41.00
14985;DHT22;7588;62.368;25.902;2023-06-14T12:02:18;29.50;43.40
14985;DHT22;7588;62.368;25.902;2023-06-14T12:04:47;29.00;45.00
14985;DHT22;7588;62.368;25.902;2023-06-14T12:07:17;28.70;41.10
14985;DHT22;7588;62.368;25.902;2023-06-14T12:12:22;28.70;42.70
14985;DHT22;7588;62.368;25.902;2023-06-14T12:14:49;28.60;41.40
14985;DHT22;7588;62.368;25.902;2023-06-14T12:17:17;29.00;44.90
14985;DHT22;7588;62.368;25.902;2023-06-14T12:19:44;28.70;44.70
14985;DHT22;7588;62.368;25.902;2023-06-14T12:22:10;29.10;44.30
14985;DHT22;7588;62.368;25.902;2023-06-14T12:24:36;29.60;41.00
14985;DHT22;7588;62.368;25.902;2023-06-14T12:27:03;29.60;41.50
14985;DHT22;7588;62.368;25.902;2023-06-14T12:29:30;29.70;43.50
14985;DHT22;7588;62.368;25.902;2023-06-14T12:31:56;30.20;42.70
14985;DHT22;7588;62.368;25.902;2023-06-14T12:34:26;30.40;42.30
14985;DHT22;7588;62.368;25.902;2023-06-14T12:36:53;30.40;43.30
14985;DHT22;7588;62.368;25.902;2023-06-14T12:39:20;30.80;40.20
14985;DHT22;7588;62.368;25.902;2023-06-14T12:41:46;31.00;37.50
14985;DHT22;7588;62.368;25.902;2023-06-14T12:44:12;30.60;39.60
14985;DHT22;7588;62.368;25.902;2023-06-14T12:46:39;30.10;45.60
14985;DHT22;7588;62.368;25.902;2023-06-14T12:49:11;30.10;45.20
14985;DHT22;7588;62.368;25.902;2023-06-14T12:51:38;30.10;41.60
14985;DHT22;7588;62.368;25.902;2023-06-14T12:54:04;30.00;41.40
14985;DHT22;7588;62.368;25.902;2023-06-14T12:56:30;29.70;40.10
14985;DHT22;7588;62.368;25.902;2023-06-14T12:58:56;29.80;40.00
14985;DHT22;7588;62.368;25.902;2023-06-14T13:01:22;30.00;43.70
14985;DHT22;7588;62.368;25.902;2023-06-14T13:03:47;30.30;41.80
14985;DHT22;7588;62.368;25.902;2023-06-14T13:06:14;30.00;41.00
14985;DHT22;7588;62.368;25.902;2023-06-14T13:08:39;29.70;41.80
14985;DHT22;7588;62.368;25.902;2023-06-14T13:11:05;29.90;41.50
14985;DHT22;7588;62.368;25.902;2023-06-14T13:13:31;29.40;41.80
14985;DHT22;7588;62.368;25.902;2023-06-14T13:15:56;28.90;43.90
14985;DHT22;7588;62.368;25.902;2023-06-14T13:18:22;29.10;41.60
14985;DHT22;7588;62.368;25.902;2023-06-14T13:20:48;29.30;45.60
14985;DHT22;7588;62.368;25.902;2023-06-14T13:23:15;28.90;42.70
14985;DHT22;7588;62.368;25.902;2023-06-14T13:25:41;29.20;43.10
14985;DHT22;7588;62.368;25.902;2023-06-14T13:28:06;29.10;46.00
14985;DHT22;7588;62.368;25.902;2023-06-14T13:30:33;28.80;45.80
14985;DHT22;7588;62.368;25.902;2023-06-14T13:32:59;28.70;42.70
14985;DHT22;7588;62.368;25.902;2023-06-14T13:35:25;28.50;41.60
14985;DHT22;7588;62.368;25.902;2023-06-14T13:37:51;28.00;41.90
14985;DHT22;7588;62.368;25.902;2023-06-14T13:40:17;27.40;42.20
14985;DHT22;7588;62.368;25.902;2023-06-14T13:42:43;26.90;44.80
14985;DHT22;7588;62.368;25.902;2023-06-14T13:45:10;26.50;46.90
14985;DHT22;7588;62.368;25.902;2023-06-14T13:47:36;26.20;45.80
14985;DHT22;7588;62.368;25.902;2023-06-14T13:50:03;25.90;45.70
14985;DHT22;7588;62.368;25.902;2023-06-14T13:52:29;25.80;45.50
14985;DHT22;7588;62.368;25.902;2023-06-14T13:54:55;25.70;46.60
14985;DHT22;7588;62.368;25.902;2023-06-14T13:57:20;25.60;47.20
14985;DHT22;7588;62.368;25.902;2023-06-14T13:59:47;25.50;47.20
14985;DHT22;7588;62.368;25.902;2023-06-14T14:02:13;25.40;47.80
14985;DHT22;7588;62.368;25.902;2023-06-14T14:04:40;25.30;47.60
14985;DHT22;7588;62.368;25.902;2023-06-14T14:07:07;25.20;48.30
14985;DHT22;7588;62.368;25.902;2023-06-14T14:09:33;25.00;47.30
14985;DHT22;7588;62.368;25.902;2023-06-14T14:12:00;25.00;49.00
14985;DHT22;7588;62.368;25.902;2023-06-14T14:14:27;25.10;48.50
14985;DHT22;7588;62.368;25.902;2023-06-14T14:16:53;25.00;48.50
14985;DHT22;7588;62.368;25.902;2023-06-14T14:19:23;24.90;48.20
14985;DHT22;7588;62.368;25.902;2023-06-14T14:21:49;24.90;48.30
14985;DHT22;7588;62.368;25.902;2023-06-14T14:24:15;24.80;48.90
14985;DHT22;7588;62.368;25.902;2023-06-14T14:26:42;24.90;50.10
14985;DHT22;7588;62.368;25.902;2023-06-14T14:29:08;24.70;52.70
14985;DHT22;7588;62.368;25.902;2023-06-14T14:31:37;24.70;48.80
14985;DHT22;7588;62.368;25.902;2023-06-14T14:34:02;24.60;50.60
14985;DHT22;7588;62.368;25.902;2023-06-14T14:36:28;24.50;50.30
14985;DHT22;7588;62.368;25.902;2023-06-14T14:38:54;24.40;49.70
14985;DHT22;7588;62.368;25.902;2023-06-14T14:41:19;24.40;49.20
14985;DHT22;7588;62.368;25.902;2023-06-14T14:43:45;24.40;51.00
14985;DHT22;7588;62.368;25.902;2023-06-14T14:46:11;24.30;51.60
14985;DHT22;7588;62.368;25.902;2023-06-14T14:48:37;24.30;52.60
14985;DHT22;7588;62.368;25.902;2023-06-14T14:51:02;24.30;53.20
14985;DHT22;7588;62.368;25.902;2023-06-14T14:53:28;24.50;51.30
14985;DHT22;7588;62.368;25.902;2023-06-14T14:55:54;24.60;49.60
14985;DHT22;7588;62.368;25.902;2023-06-14T14:58:20;24.40;50.40
14985;DHT22;7588;62.368;25.902;2023-06-14T15:00:46;24.50;49.20
14985;DHT22;7588;62.368;25.902;2023-06-14T15:03:12;24.30;50.70
14985;DHT22;7588;62.368;25.902;2023-06-14T15:05:38;24.30;52.20
14985;DHT22;7588;62.368;25.902;2023-06-14T15:08:04;24.30;52.50
14985;DHT22;7588;62.368;25.902;2023-06-14T15:10:36;24.20;52.50
14985;DHT22;7588;62.368;25.902;2023-06-14T15:13:01;24.30;50.40
14985;DHT22;7588;62.368;25.902;2023-06-14T15:15:27;24.30;49.60
14985;DHT22;7588;62.368;25.902;2023-06-14T15:17:53;24.30;50.40
14985;DHT22;7588;62.368;25.902;2023-06-14T15:20:18;24.20;50.90
14985;DHT22;7588;62.368;25.902;2023-06-14T15:22:44;24.10;52.10
14985;DHT22;7588;62.368;25.902;2023-06-14T15:25:10;24.10;52.30
14985;DHT22;7588;62.368;25.902;2023-06-14T15:27:36;24.10;51.60
14985;DHT22;7588;62.368;25.902;2023-06-14T15:30:02;24.10;51.50
14985;DHT22;7588;62.368;25.902;2023-06-14T15:32:28;24.10;51.20
14985;DHT22;7588;62.368;25.902;2023-06-14T15:34:54;24.00;52.10
14985;DHT22;7588;62.368;25.902;2023-06-14T15:37:20;23.90;52.40
14985;DHT22;7588;62.368;25.902;2023-06-14T15:39:45;23.80;52.50
14985;DHT22;7588;62.368;25.902;2023-06-14T15:42:11;23.80;51.40
14985;DHT22;7588;62.368;25.902;2023-06-14T15:44:37;23.80;52.90
14985;DHT22;7588;62.368;25.902;2023-06-14T15:47:03;23.80;54.30
14985;DHT22;7588;62.368;25.902;2023-06-14T15:49:28;23.70;53.30
14985;DHT22;7588;62.368;25.902;2023-06-14T15:51:55;23.70;53.50
14985;DHT22;7588;62.368;25.902;2023-06-14T15:54:21;23.60;54.70
14985;DHT22;7588;62.368;25.902;2023-06-14T15:56:47;23.60;54.00
14985;DHT22;7588;62.368;25.902;2023-06-14T15:59:12;23.70;53.20